Time;durP1;ratioP1;P1;durP2;ratioP2;P2;SDS_P1;SDS_P2;PMS_P1;PMS_P2;Temp;Humidity;BMP_temperature;BMP_pressure;BME280_temperature;BME280_humidity;BME280_pressure;Samples;Min_cycle;Max_cycle;Signal;HPM_P1;HPM_P2
2023/08/29 00:00:01;;;;;;;;;;;;;;;22.07;54.91;101255.94;5064688;28;19917;-44
2023/08/29 00:02:31;;;;;;;;;;;;;;;22.07;55.00;101257.78;5061913;28;19917;-43
2023/08/29 00:04:56;;;;;;;;;;;;;;;22.07;54.73;101260.50;5069239;28;19913;-44
2023/08/29 00:07:21;;;;;;;;;;;;;;;22.06;55.10;101258.81;5064513;28;19913;-46
2023/08/29 00:09:47;;;;;;;;;;;;;;;22.05;54.68;101251.72;5064584;28;19956;-44
2023/08/29 00:12:12;;;;;;;;;;;;;;;22.04;54.87;101240.03;5064440;28;19913;-45
2023/08/29 00:14:37;;;;;;;;;;;;;;;22.04;54.63;101233.78;5064307;28;19924;-45
2023/08/29 00:17:04;;;;;;;;;;;;;;;22.03;54.93;101232.94;5064457;28;19913;-44
2023/08/29 00:19:29;;;;;;;;;;;;;;;22.02;54.76;101228.56;5064546;28;19927;-46
2023/08/29 00:21:54;;;;;;;;;;;;;;;22.01;54.89;101228.75;5064514;28;19921;-45
2023/08/29 00:24:19;;;;;;;;;;;;;;;22.00;54.92;101232.47;5064332;28;20392;-44
2023/08/29 00:26:45;;;;;;;;;;;;;;;22.00;54.88;101230.59;5063799;28;19933;-44
2023/08/29 00:29:10;;;;;;;;;;;;;;;21.99;54.87;101219.94;5064085;28;19931;-45
2023/08/29 00:31:35;;;;;;;;;;;;;;;;;;5063466;28;19924;-43
2023/08/29 00:34:01;;;;;;;;;;;;;;;;;;5064169;28;19913;-44
2023/08/29 00:36:26;;;;;;;;;;;;;;;21.96;54.97;101211.19;5063306;28;20007;-44
2023/08/29 00:38:51;;;;;;;;;;;;;;;21.95;54.81;101208.63;5062905;28;19960;-45
2023/08/29 00:41:16;;;;;;;;;;;;;;;21.94;54.98;101202.38;5062246;28;19917;-45
2023/08/29 00:43:41;;;;;;;;;;;;;;;21.93;54.77;101202.56;5064046;28;19912;-44
2023/08/29 00:46:06;;;;;;;;;;;;;;;21.93;54.81;101208.00;5063532;28;19963;-45
2023/08/29 00:48:32;;;;;;;;;;;;;;;21.93;54.76;101202.56;5064098;28;19963;-44
2023/08/29 00:50:57;;;;;;;;;;;;;;;21.92;54.89;101201.75;5063820;28;19952;-44
2023/08/29 00:53:22;;;;;;;;;;;;;;;21.91;54.51;101205.44;5064183;28;19920;-43
2023/08/29 00:55:48;;;;;;;;;;;;;;;21.90;54.76;101203.78;5062395;28;19920;-45
2023/08/29 00:58:13;;;;;;;;;;;;;;;21.89;54.69;101204.81;5063638;28;19912;-44
2023/08/29 01:00:38;;;;;;;;;;;;;;;21.89;54.70;101202.09;5062657;28;19925;-43
2023/08/29 01:03:04;;;;;;;;;;;;;;;21.88;54.72;101200.41;5095055;28;19953;-43
2023/08/29 01:05:29;;;;;;;;;;;;;;;21.87;54.49;101195.16;5062954;28;19956;-44
2023/08/29 01:07:58;;;;;;;;;;;;;;;21.87;54.71;101197.88;5063697;28;19916;-44
2023/08/29 01:10:45;;;;;;;;;;;;;;;21.87;54.92;101200.56;5062319;28;19919;-44
2023/08/29 01:13:15;;;;;;;;;;;;;;;21.85;54.73;101195.34;5095795;28;19920;-47
2023/08/29 01:15:40;;;;;;;;;;;;;;;21.85;54.44;101194.53;5062012;28;19913;-51
2023/08/29 01:18:05;;;;;;;;;;;;;;;21.84;54.61;101199.09;5062465;28;19963;-49
2023/08/29 01:20:31;;;;;;;;;;;;;;;21.83;54.85;101197.38;5095742;28;19923;-48
2023/08/29 01:23:02;;;;;;;;;;;;;;;21.83;54.82;101196.53;5062734;28;20297;-50
2023/08/29 01:25:31;;;;;;;;;;;;;;;21.82;54.40;101201.13;5064339;28;19921;-48
2023/08/29 01:27:56;;;;;;;;;;;;;;;21.80;54.46;101200.47;5068767;28;20009;-51
2023/08/29 01:30:22;;;;;;;;;;;;;;;21.80;54.73;101197.78;5066600;28;19968;-50
2023/08/29 01:32:47;;;;;;;;;;;;;;;21.81;54.66;101209.44;5066223;28;19924;-49
2023/08/29 01:35:13;;;;;;;;;;;;;;;21.80;54.78;101213.16;5064585;28;19923;-46
2023/08/29 01:37:38;;;;;;;;;;;;;;;21.79;54.75;101219.59;5067232;28;20024;-50
2023/08/29 01:40:04;;;;;;;;;;;;;;;21.78;54.45;101220.63;5067307;28;19920;-46
2023/08/29 01:42:29;;;;;;;;;;;;;;;21.77;54.53;101227.06;5067256;28;19917;-49
2023/08/29 01:44:54;;;;;;;;;;;;;;;21.77;54.35;101218.94;5066792;28;19923;-48
2023/08/29 01:47:19;;;;;;;;;;;;;;;21.76;54.63;101215.38;5066924;28;19963;-46
2023/08/29 01:49:45;;;;;;;;;;;;;;;21.75;54.70;101212.84;5066924;28;20288;-47
2023/08/29 01:52:10;;;;;;;;;;;;;;;21.75;54.36;101223.66;5067259;28;20342;-47
2023/08/29 01:54:35;;;;;;;;;;;;;;;21.36;54.55;101154.25;5067906;28;19943;-45
2023/08/29 01:57:01;;;;;;;;;;;;;;;21.74;54.42;101211.16;5099475;28;19912;-47
2023/08/29 01:59:26;;;;;;;;;;;;;;;21.74;54.53;101208.47;5066808;28;19912;-47
2023/08/29 02:01:51;;;;;;;;;;;;;;;21.73;54.44;101212.19;5098061;28;20207;-44
2023/08/29 02:04:16;;;;;;;;;;;;;;;21.71;54.41;101210.53;5066627;28;19913;-45
2023/08/29 02:06:41;;;;;;;;;;;;;;;21.70;54.47;101219.63;5066360;28;19913;-44
2023/08/29 02:09:07;;;;;;;;;;;;;;;21.69;54.36;101223.38;5066779;28;19948;-45
2023/08/29 02:11:32;;;;;;;;;;;;;;;21.69;54.23;101222.53;5098984;28;19947;-44
2023/08/29 02:13:57;;;;;;;;;;;;;;;21.68;54.48;101226.28;5066593;28;19917;-48
2023/08/29 02:16:24;;;;;;;;;;;;;;;21.67;54.62;101232.72;5066096;28;19913;-44
2023/08/29 02:18:50;;;;;;;;;;;;;;;21.66;54.49;101234.56;5098903;28;20297;-45
2023/08/29 02:21:15;;;;;;;;;;;;;;;21.66;54.36;101231.00;5066137;28;19917;-46
2023/08/29 02:23:40;;;;;;;;;;;;;;;21.65;54.38;101234.75;5069368;28;20012;-46
2023/08/29 02:26:05;;;;;;;;;;;;;;;21.64;54.50;101228.50;5066231;28;19925;-46
2023/08/29 02:28:37;;;;;;;;;;;;;;;21.63;54.32;101224.09;5066558;28;20366;-44
2023/08/29 02:31:11;;;;;;;;;;;;;;;21.63;54.57;101229.50;5065373;28;19913;-47
2023/08/29 02:33:40;;;;;;;;;;;;;;;21.62;54.50;101227.84;5065628;28;19929;-45
2023/08/29 02:36:05;;;;;;;;;;;;;;;21.61;54.29;101228.84;5065271;28;19919;-47
2023/08/29 02:38:31;;;;;;;;;;;;;;;21.61;54.10;101222.59;5066430;28;19917;-48
2023/08/29 02:40:56;;;;;;;;;;;;;;;21.60;54.43;101223.63;5098072;28;19916;-45
2023/08/29 02:43:21;;;;;;;;;;;;;;;21.60;54.35;101223.63;5065838;28;19913;-44
2023/08/29 02:45:46;;;;;;;;;;;;;;;21.58;54.11;101226.50;5065569;28;19980;-46
2023/08/29 02:48:12;;;;;;;;;;;;;;;21.59;54.26;101232.75;5064049;28;20385;-44
2023/08/29 02:50:37;;;;;;;;;;;;;;;21.57;54.35;101243.75;5065915;28;20283;-47
2023/08/29 02:53:02;;;;;;;;;;;;;;;21.57;54.44;101251.03;5066082;28;20361;-45
2023/08/29 02:55:28;;;;;;;;;;;;;;;21.56;54.44;101252.88;5066021;28;19927;-45
2023/08/29 02:57:53;;;;;;;;;;;;;;;21.55;54.32;101248.50;5066138;28;20007;-44
2023/08/29 03:00:18;;;;;;;;;;;;;;;21.55;54.05;101253.06;5065508;28;19924;-46
2023/08/29 03:02:44;;;;;;;;;;;;;;;21.54;54.20;101263.06;5065723;28;19920;-46
2023/08/29 03:05:09;;;;;;;;;;;;;;;21.54;54.08;101270.34;5064873;28;19912;-46
2023/08/29 03:07:34;;;;;;;;;;;;;;;21.52;54.37;101264.25;5065347;28;19916;-45
2023/08/29 03:09:59;;;;;;;;;;;;;;;21.52;54.14;101265.09;5065254;28;19912;-46
2023/08/29 03:12:24;;;;;;;;;;;;;;;21.51;54.20;101259.88;5065449;28;19967;-44
2023/08/29 03:14:56;;;;;;;;;;;;;;;21.51;54.29;101255.28;5064156;28;19913;-45
2023/08/29 03:17:21;;;;;;;;;;;;;;;21.51;54.29;101257.16;5064958;28;19913;-45
2023/08/29 03:19:46;;;;;;;;;;;;;;;21.50;53.93;101256.31;5065377;28;19962;-45
2023/08/29 03:22:11;;;;;;;;;;;;;;;21.48;54.09;101250.22;5065924;28;19944;-44
2023/08/29 03:24:37;;;;;;;;;;;;;;;21.49;54.02;101259.19;5065254;28;19917;-48
2023/08/29 03:27:03;;;;;;;;;;;;;;;21.46;53.90;101253.13;5064972;28;19921;-49
2023/08/29 03:29:28;;;;;;;;;;;;;;;21.48;53.95;101249.38;5065189;28;19982;-46
2023/08/29 03:31:53;;;;;;;;;;;;;;;21.46;54.03;101249.56;5062725;28;20166;-44
2023/08/29 03:34:18;;;;;;;;;;;;;;;21.45;54.05;101250.56;5064466;28;19944;-46
2023/08/29 03:36:44;;;;;;;;;;;;;;;21.45;53.97;101250.56;5060646;28;20365;-46
2023/08/29 03:39:09;;;;;;;;;;;;;;;21.43;53.82;101250.75;5064805;28;20358;-46
2023/08/29 03:41:34;;;;;;;;;;;;;;;21.42;53.93;101240.13;5064646;28;19920;-45
2023/08/29 03:43:59;;;;;;;;;;;;;;;21.42;53.82;101243.66;5064537;28;19913;-47
2023/08/29 03:46:24;;;;;;;;;;;;;;;21.42;53.92;101240.97;5064172;28;19917;-46
2023/08/29 03:48:50;;;;;;;;;;;;;;;21.41;54.13;101242.00;5063674;28;19923;-46
2023/08/29 03:51:15;;;;;;;;;;;;;;;21.40;54.04;101234.88;5064106;28;19913;-45
2023/08/29 03:53:40;;;;;;;;;;;;;;;21.40;54.08;101231.31;5065029;28;19924;-49
2023/08/29 03:56:06;;;;;;;;;;;;;;;21.39;53.84;101233.19;5064617;28;19919;-44
2023/08/29 03:58:32;;;;;;;;;;;;;;;21.38;53.79;101225.28;5064497;28;20016;-48
2023/08/29 04:00:58;;;;;;;;;;;;;;;21.38;53.83;101219.84;5063173;28;19917;-47
2023/08/29 04:03:23;;;;;;;;;;;;;;;21.38;53.97;101222.56;5064391;28;19916;-46
2023/08/29 04:05:48;;;;;;;;;;;;;;;21.38;54.15;101212.59;5062243;28;19924;-48
2023/08/29 04:08:13;;;;;;;;;;;;;;;21.36;53.88;101214.59;5062999;28;20003;-47
2023/08/29 04:10:39;;;;;;;;;;;;;;;21.37;54.12;101199.25;5063837;28;19924;-45
2023/08/29 04:13:04;;;;;;;;;;;;;;;21.37;54.37;101199.25;5064408;28;19920;-45
2023/08/29 04:15:30;;;;;;;;;;;;;;;21.37;54.49;101188.44;5063813;28;19920;-45
2023/08/29 04:17:55;;;;;;;;;;;;;;;21.36;54.38;101187.56;5060473;28;19932;-47
2023/08/29 04:20:21;;;;;;;;;;;;;;;21.36;54.61;101179.44;5060513;28;19917;-45
2023/08/29 04:22:46;;;;;;;;;;;;;;;21.35;54.57;101183.19;5063975;28;19916;-45
2023/08/29 04:25:12;;;;;;;;;;;;;;;21.36;54.46;101186.72;5063426;28;19921;-47
2023/08/29 04:27:38;;;;;;;;;;;;;;;21.36;54.56;101178.59;5064007;28;19917;-47
2023/08/29 04:30:03;;;;;;;;;;;;;;;21.36;54.41;101184.84;5063646;28;19913;-47
2023/08/29 04:32:34;;;;;;;;;;;;;;;21.36;54.77;101178.59;5063515;28;19919;-49
2023/08/29 04:34:59;;;;;;;;;;;;;;;21.35;54.67;101179.63;5063480;28;19912;-46
2023/08/29 04:37:24;;;;;;;;;;;;;;;21.35;54.48;101176.94;5063303;28;20035;-43
2023/08/29 04:39:49;;;;;;;;;;;;;;;21.35;54.62;101179.63;5063140;28;20155;-45
2023/08/29 04:42:14;;;;;;;;;;;;;;;21.35;54.83;101174.22;5063661;28;19924;-47
2023/08/29 04:44:39;;;;;;;;;;;;;;;21.35;54.68;101174.22;5063584;28;20011;-45
2023/08/29 04:47:05;;;;;;;;;;;;;;;21.34;54.81;101170.69;5063085;28;19916;-46
2023/08/29 04:49:30;;;;;;;;;;;;;;;21.34;54.92;101169.84;5063455;28;20038;-44
2023/08/29 04:51:55;;;;;;;;;;;;;;;21.34;54.61;101167.97;5065482;28;19920;-45
2023/08/29 04:54:21;;;;;;;;;;;;;;;21.34;54.84;101164.44;5064684;28;19920;-45
2023/08/29 04:56:46;;;;;;;;;;;;;;;21.34;54.97;101164.44;5063758;28;19939;-44
2023/08/29 04:59:11;;;;;;;;;;;;;;;21.33;54.70;101170.88;5063095;28;19917;-43
2023/08/29 05:01:37;;;;;;;;;;;;;;;21.33;54.90;101165.47;5062835;28;19956;-45
2023/08/29 05:04:04;;;;;;;;;;;;;;;21.32;54.61;101169.16;5062737;28;19957;-42
2023/08/29 05:06:29;;;;;;;;;;;;;;;21.31;54.84;101170.16;5056415;28;19959;-44
2023/08/29 05:08:54;;;;;;;;;;;;;;;21.30;54.98;101185.53;5056961;28;19920;-47
2023/08/29 05:11:19;;;;;;;;;;;;;;;21.30;54.96;101184.72;5062793;28;20419;-44
2023/08/29 05:13:44;;;;;;;;;;;;;;;21.30;54.92;101190.13;5062491;28;19913;-47
2023/08/29 05:16:10;;;;;;;;;;;;;;;21.29;54.66;101189.28;5062916;28;19917;-44
2023/08/29 05:18:35;;;;;;;;;;;;;;;21.29;54.79;101196.56;5063105;28;19972;-45
2023/08/29 05:21:00;;;;;;;;;;;;;;;21.29;54.52;101188.44;5063188;28;19956;-45
2023/08/29 05:23:26;;;;;;;;;;;;;;;21.27;54.71;101202.13;5062792;28;19913;-45
2023/08/29 05:25:51;;;;;;;;;;;;;;;21.28;54.83;101197.56;5063095;28;20049;-45
2023/08/29 05:28:16;;;;;;;;;;;;;;;21.27;54.66;101185.88;5062913;28;19980;-45
2023/08/29 05:30:42;;;;;;;;;;;;;;;21.26;54.65;101192.31;5062683;28;19924;-48
2023/08/29 05:33:08;;;;;;;;;;;;;;;21.25;54.62;101192.53;5062692;28;20373;-47
2023/08/29 05:35:33;;;;;;;;;;;;;;;21.25;54.49;101190.66;5062796;28;19924;-46
2023/08/29 05:37:58;;;;;;;;;;;;;;;21.24;54.50;101199.78;5062907;28;19916;-46
2023/08/29 05:40:24;;;;;;;;;;;;;;;21.24;54.59;101194.38;5063062;28;19912;-44
2023/08/29 05:42:49;;;;;;;;;;;;;;;21.24;54.42;101188.97;5062965;28;19913;-48
2023/08/29 05:45:14;;;;;;;;;;;;;;;21.23;54.41;101180.00;5061730;28;19920;-44
2023/08/29 05:47:40;;;;;;;;;;;;;;;21.22;54.27;101175.59;5061160;28;19917;-48
2023/08/29 05:50:05;;;;;;;;;;;;;;;21.21;54.45;101187.47;5063199;28;19913;-46
2023/08/29 05:52:31;;;;;;;;;;;;;;;21.21;53.95;101175.81;5062840;28;19916;-47
2023/08/29 05:54:57;;;;;;;;;;;;;;;21.22;53.50;101183.72;5062960;28;19913;-46
2023/08/29 05:57:22;;;;;;;;;;;;;;;21.23;53.51;101179.16;5059192;28;19916;-46
2023/08/29 05:59:47;;;;;;;;;;;;;;;21.24;53.60;101180.88;5062259;28;19925;-44
2023/08/29 06:02:13;;;;;;;;;;;;;;;21.24;53.19;101180.88;5062182;28;19917;-46
2023/08/29 06:04:38;;;;;;;;;;;;;;;21.22;53.30;101175.59;5061250;28;20503;-44
2023/08/29 06:07:05;;;;;;;;;;;;;;;21.21;53.27;101173.94;5061203;28;19920;-47
2023/08/29 06:09:30;;;;;;;;;;;;;;;21.20;53.17;101166.00;5093626;28;20329;-44
2023/08/29 06:11:55;;;;;;;;;;;;;;;21.18;52.89;101176.97;5064444;28;20354;-45
2023/08/29 06:14:20;;;;;;;;;;;;;;;21.17;52.88;101180.72;5065857;28;19913;-45
2023/08/29 06:16:46;;;;;;;;;;;;;;;21.16;52.71;101179.03;5066509;28;19924;-47
2023/08/29 06:19:11;;;;;;;;;;;;;;;21.14;52.83;101181.06;5066381;28;20456;-45
2023/08/29 06:21:36;;;;;;;;;;;;;;;21.13;52.78;101182.09;5065885;28;19917;-47
2023/08/29 06:24:01;;;;;;;;;;;;;;;21.12;52.99;101183.13;5065797;28;19919;-45
2023/08/29 06:26:26;;;;;;;;;;;;;;;21.11;52.76;101181.44;5064120;28;19923;-45
2023/08/29 06:28:51;;;;;;;;;;;;;;;21.11;52.75;101181.44;5065245;28;20003;-46
2023/08/29 06:31:17;;;;;;;;;;;;;;;21.11;52.69;101180.56;5065619;28;19971;-44
2023/08/29 06:33:42;;;;;;;;;;;;;;;21.11;52.74;101188.69;5067707;28;19917;-46
2023/08/29 06:36:07;;;;;;;;;;;;;;;21.11;52.95;101188.69;5097409;28;20019;-45
2023/08/29 06:38:34;;;;;;;;;;;;;;;21.10;52.86;101182.44;5066226;28;19912;-44
2023/08/29 06:40:59;;;;;;;;;;;;;;;21.10;52.98;101179.72;5063659;28;20373;-43
2023/08/29 06:43:25;;;;;;;;;;;;;;;21.10;52.68;101185.13;5065250;28;19963;-45
2023/08/29 06:45:50;;;;;;;;;;;;;;;21.10;52.79;101182.44;5065204;28;19919;-45
2023/08/29 06:48:15;;;;;;;;;;;;;;;21.10;52.94;101176.19;5065920;28;19987;-44
2023/08/29 06:50:41;;;;;;;;;;;;;;;21.11;52.86;101181.44;5098434;28;19939;-48
2023/08/29 06:53:06;;;;;;;;;;;;;;;21.11;52.80;101181.44;5065482;28;19913;-46
2023/08/29 06:55:34;;;;;;;;;;;;;;;21.11;52.82;101176.03;5065864;28;19917;-46
2023/08/29 06:58:00;;;;;;;;;;;;;;;21.12;52.94;101171.47;5066080;28;19913;-44
2023/08/29 07:00:25;;;;;;;;;;;;;;;21.12;53.29;101171.47;5065433;28;19955;-46
2023/08/29 07:02:50;;;;;;;;;;;;;;;21.11;53.17;101181.44;5065494;28;19966;-45
2023/08/29 07:05:16;;;;;;;;;;;;;;;21.12;52.93;101180.41;5064757;28;19913;-46
2023/08/29 07:07:41;;;;;;;;;;;;;;;21.12;53.24;101177.72;5065723;28;19917;-45
2023/08/29 07:10:07;;;;;;;;;;;;;;;21.14;52.87;101182.94;5065394;28;19920;-44
2023/08/29 07:12:32;;;;;;;;;;;;;;;21.13;52.99;101178.53;5065042;28;19990;-43
2023/08/29 07:14:57;;;;;;;;;;;;;;;21.13;53.01;101178.53;5063521;28;20428;-44
2023/08/29 07:17:22;;;;;;;;;;;;;;;21.14;53.09;101177.53;5064810;28;19932;-45
2023/08/29 07:19:47;;;;;;;;;;;;;;;21.14;53.30;101172.94;5065463;28;20003;-43
2023/08/29 07:22:13;;;;;;;;;;;;;;;21.15;53.20;101171.94;5063162;28;19996;-44
2023/08/29 07:24:39;;;;;;;;;;;;;;;21.15;53.17;101174.66;5065089;28;19927;-46
2023/08/29 07:27:04;;;;;;;;;;;;;;;21.16;53.32;101173.63;5064903;28;19924;-44
2023/08/29 07:29:30;;;;;;;;;;;;;;;21.16;53.13;101165.53;5065350;28;19919;-43
2023/08/29 07:31:56;;;;;;;;;;;;;;;21.17;53.45;101171.75;5064361;28;19920;-43
2023/08/29 07:34:21;;;;;;;;;;;;;;;21.18;53.45;101168.03;5067076;28;20010;-44
2023/08/29 07:36:46;;;;;;;;;;;;;;;21.18;53.42;101163.47;5064562;28;19913;-47
2023/08/29 07:39:12;;;;;;;;;;;;;;;21.19;53.11;101167.00;5064746;28;19979;-46
2023/08/29 07:41:37;;;;;;;;;;;;;;;21.19;53.19;101164.31;5064743;28;19917;-45
2023/08/29 07:44:02;;;;;;;;;;;;;;;21.20;53.14;101161.44;5064781;28;19913;-45
2023/08/29 07:46:27;;;;;;;;;;;;;;;21.21;53.18;101159.56;5063903;28;20294;-44
2023/08/29 07:48:53;;;;;;;;;;;;;;;21.20;53.36;101158.75;5064615;28;19927;-44
2023/08/29 07:51:18;;;;;;;;;;;;;;;21.21;53.29;101159.56;5064844;28;19921;-43
2023/08/29 07:53:43;;;;;;;;;;;;;;;21.23;53.55;101166.47;5064085;28;19913;-44
2023/08/29 07:56:08;;;;;;;;;;;;;;;21.23;53.44;101168.34;5061607;28;20330;-46
2023/08/29 07:58:33;;;;;;;;;;;;;;;21.24;53.55;101167.34;5064056;28;19924;-44
2023/08/29 08:00:59;;;;;;;;;;;;;;;21.25;53.46;101171.72;5062776;28;19925;-44
2023/08/29 08:03:24;;;;;;;;;;;;;;;21.27;53.60;101171.53;5062445;28;20299;-44
2023/08/29 08:05:49;;;;;;;;;;;;;;;21.27;53.73;101169.66;5063350;28;19921;-44
2023/08/29 08:08:15;;;;;;;;;;;;;;;21.27;53.93;101177.78;5063445;28;19913;-44
2023/08/29 08:10:40;;;;;;;;;;;;;;;21.28;53.69;101174.06;5061242;28;19940;-43
2023/08/29 08:13:05;;;;;;;;;;;;;;;21.30;54.04;101171.19;5061015;28;19913;-44
2023/08/29 08:15:30;;;;;;;;;;;;;;;21.30;53.96;101176.59;5062085;28;19916;-44
2023/08/29 08:17:55;;;;;;;;;;;;;;;21.31;54.00;101171.00;5062464;28;20304;-45
2023/08/29 08:20:21;;;;;;;;;;;;;;;21.32;54.23;101171.88;5061948;28;20383;-45
2023/08/29 08:22:47;;;;;;;;;;;;;;;21.32;54.54;101167.28;5061969;28;19916;-44
2023/08/29 08:25:12;;;;;;;;;;;;;;;21.34;54.45;101172.53;5061908;28;19967;-46
2023/08/29 08:27:40;;;;;;;;;;;;;;;21.34;54.75;101176.09;5063403;28;20081;-48
2023/08/29 08:30:05;;;;;;;;;;;;;;;21.35;54.90;101179.63;5061661;28;20114;-45
2023/08/29 08:32:31;;;;;;;;;;;;;;;21.36;54.64;101176.75;5061556;28;19936;-44
2023/08/29 08:34:56;;;;;;;;;;;;;;;21.37;54.79;101172.19;5062325;28;19917;-46
2023/08/29 08:37:21;;;;;;;;;;;;;;;21.38;55.11;101172.00;5063271;28;19920;-45
2023/08/29 08:39:46;;;;;;;;;;;;;;;21.38;55.19;101172.00;5063699;28;19921;-45
2023/08/29 08:42:12;;;;;;;;;;;;;;;21.39;55.12;101172.84;5063365;28;19916;-49
2023/08/29 08:44:37;;;;;;;;;;;;;;;21.40;54.91;101178.06;5062355;28;19978;-47
2023/08/29 08:47:03;;;;;;;;;;;;;;;21.41;55.13;101176.22;5063220;28;19979;-44
2023/08/29 08:49:28;;;;;;;;;;;;;;;21.40;54.94;101180.78;5095837;28;19928;-44
2023/08/29 08:51:54;;;;;;;;;;;;;;;21.41;55.00;101176.22;5062587;28;20005;-46
2023/08/29 08:54:19;;;;;;;;;;;;;;;21.41;55.21;101179.78;5063798;28;20338;-44
2023/08/29 08:56:44;;;;;;;;;;;;;;;21.41;55.17;101173.53;5063450;28;19913;-46
2023/08/29 08:59:09;;;;;;;;;;;;;;;21.41;55.17;101181.63;5063574;28;19939;-44
2023/08/29 09:01:34;;;;;;;;;;;;;;;21.41;55.17;101176.22;5064979;28;19931;-46
2023/08/29 09:04:00;;;;;;;;;;;;;;;21.40;54.77;101175.38;5063824;28;19913;-45
2023/08/29 09:06:25;;;;;;;;;;;;;;;21.40;54.74;101171.81;5095040;28;19912;-46
2023/08/29 09:08:51;;;;;;;;;;;;;;;21.40;54.72;101185.34;5063446;28;19982;-46
2023/08/29 09:11:19;;;;;;;;;;;;;;;21.39;54.65;101165.56;5063824;28;19976;-48
2023/08/29 09:13:46;;;;;;;;;;;;;;;21.39;54.55;101170.97;5063504;28;19913;-49
2023/08/29 09:16:12;;;;;;;;;;;;;;;21.39;54.59;101184.50;5062732;28;19913;-43
2023/08/29 09:18:37;;;;;;;;;;;;;;;21.40;54.60;101177.22;5063601;28;19939;-44
2023/08/29 09:21:04;;;;;;;;;;;;;;;21.39;54.37;101172.84;5063333;28;19917;-46
2023/08/29 09:23:30;;;;;;;;;;;;;;;21.12;54.34;101136.31;5063664;28;19913;-46
2023/08/29 09:25:56;;;;;;;;;;;;;;;21.40;54.67;101178.06;5063076;28;19924;-45
2023/08/29 09:28:28;;;;;;;;;;;;;;;21.40;54.59;101179.94;5062912;28;20019;-46
2023/08/29 09:30:53;;;;;;;;;;;;;;;21.39;54.70;101181.81;5065016;28;20393;-47
2023/08/29 09:33:20;;;;;;;;;;;;;;;21.41;54.53;101182.47;5095418;28;19917;-45
2023/08/29 09:35:46;;;;;;;;;;;;;;;21.41;54.59;101182.47;5062494;28;19913;-46
2023/08/29 09:38:11;;;;;;;;;;;;;;;21.41;54.78;101181.63;5063310;28;19934;-45
2023/08/29 09:40:46;;;;;;;;;;;;;;;21.41;54.63;101184.34;5063039;28;19920;-47
2023/08/29 09:43:13;;;;;;;;;;;;;;;21.41;54.66;101176.22;5063371;28;19944;-44
2023/08/29 09:45:38;;;;;;;;;;;;;;;21.40;54.59;101183.47;5095227;28;19919;-47
2023/08/29 09:48:05;;;;;;;;;;;;;;;21.41;54.42;101178.94;5066966;28;19952;-46
2023/08/29 09:50:31;;;;;;;;;;;;;;;21.41;54.77;101187.88;5067261;28;19913;-47
2023/08/29 09:52:56;;;;;;;;;;;;;;;21.41;54.34;101177.06;5099519;28;19919;-45
2023/08/29 09:55:21;;;;;;;;;;;;;;;21.43;54.66;101179.59;5066950;28;19951;-44
2023/08/29 09:57:53;;;;;;;;;;;;;;;21.43;54.34;101179.59;5065228;28;19978;-47
2023/08/29 10:00:21;;;;;;;;;;;;;;;21.43;54.39;101174.19;5066940;28;19919;-46
2023/08/29 10:02:47;;;;;;;;;;;;;;;21.44;54.68;101168.56;5066289;28;19924;-45
2023/08/29 10:05:12;;;;;;;;;;;;;;;21.44;54.52;101165.88;5066849;28;19966;-44
2023/08/29 10:07:39;;;;;;;;;;;;;;;21.46;54.52;101168.41;5066000;28;20027;-47
2023/08/29 10:10:06;;;;;;;;;;;;;;;21.48;54.40;101158.25;5066948;28;19917;-46
2023/08/29 10:12:32;;;;;;;;;;;;;;;21.50;54.04;101152.66;5066730;28;19913;-46
2023/08/29 10:14:57;;;;;;;;;;;;;;;21.51;54.23;101151.66;5065399;28;19919;-48
2023/08/29 10:17:22;;;;;;;;;;;;;;;21.52;54.25;101150.63;5065722;28;20275;-45
2023/08/29 10:19:47;;;;;;;;;;;;;;;21.53;54.07;101160.41;5066894;28;20297;-45
2023/08/29 10:22:13;;;;;;;;;;;;;;;21.54;54.29;101151.28;5098682;28;19951;-46
2023/08/29 10:24:38;;;;;;;;;;;;;;;21.54;54.30;101149.44;5098773;28;19917;-46
2023/08/29 10:27:03;;;;;;;;;;;;;;;21.55;54.27;101153.81;5098697;28;19974;-44
2023/08/29 10:29:31;;;;;;;;;;;;;;;21.57;54.22;101145.50;5065022;28;20179;-45
2023/08/29 10:31:57;;;;;;;;;;;;;;;21.57;54.43;101153.63;5099309;28;19917;-47
2023/08/29 10:34:24;;;;;;;;;;;;;;;21.57;54.23;101149.03;5064518;28;19912;-48
2023/08/29 10:36:49;;;;;;;;;;;;;;;21.58;54.37;101141.75;5096846;28;19917;-46
2023/08/29 10:39:15;;;;;;;;;;;;;;;21.58;54.44;101147.16;5066485;28;19923;-48
2023/08/29 10:41:44;;;;;;;;;;;;;;;21.58;54.49;101144.47;5098495;28;20024;-43
2023/08/29 10:44:22;;;;;;;;;;;;;;;21.57;54.36;101143.63;5063597;28;19924;-49
2023/08/29 10:46:51;;;;;;;;;;;;;;;21.57;54.48;101154.44;5097166;28;19984;-44
2023/08/29 10:49:16;;;;;;;;;;;;;;;21.57;54.42;101146.34;5066115;28;19920;-46
2023/08/29 10:51:43;;;;;;;;;;;;;;;21.57;54.51;101143.63;5064091;28;19913;-46
2023/08/29 10:54:08;;;;;;;;;;;;;;;21.58;54.61;101147.16;5065808;28;19980;-44
2023/08/29 10:56:40;;;;;;;;;;;;;;;21.58;54.35;101139.06;5097392;28;19912;-46
2023/08/29 10:59:06;;;;;;;;;;;;;;;21.57;54.56;101149.03;5065740;28;20274;-45
2023/08/29 11:01:31;;;;;;;;;;;;;;;21.58;54.60;101147.16;5065689;28;19916;-47
2023/08/29 11:04:00;;;;;;;;;;;;;;;21.58;54.58;101139.94;5065410;28;19917;-45
2023/08/29 11:06:26;;;;;;;;;;;;;;;21.59;54.74;101140.75;5064955;28;19920;-44
2023/08/29 11:09:10;;;;;;;;;;;;;;;21.59;54.64;101146.19;5065361;28;19913;-45
2023/08/29 11:11:35;;;;;;;;;;;;;;;21.59;54.45;101138.91;5063184;28;19988;-47
2023/08/29 11:14:00;;;;;;;;;;;;;;;21.60;54.67;101128.91;5064909;28;19913;-44
2023/08/29 11:16:26;;;;;;;;;;;;;;;21.60;54.64;101118.94;5097455;28;19924;-45
2023/08/29 11:18:58;;;;;;;;;;;;;;;21.61;54.61;101117.91;5065280;28;19912;-45
2023/08/29 11:21:23;;;;;;;;;;;;;;;21.62;54.45;101118.72;5063400;28;20534;-47
2023/08/29 11:23:48;;;;;;;;;;;;;;;21.62;54.71;101110.63;5097486;28;19944;-46
2023/08/29 11:26:14;;;;;;;;;;;;;;;21.63;54.46;101113.16;5096871;28;19928;-47
2023/08/29 11:28:41;;;;;;;;;;;;;;;21.63;54.66;101112.31;5098383;28;19939;-45
2023/08/29 11:31:06;;;;;;;;;;;;;;;21.64;54.81;101114.84;5064955;28;19917;-46
2023/08/29 11:33:32;;;;;;;;;;;;;;;21.67;54.38;101116.34;5064756;28;19959;-48
2023/08/29 11:35:58;;;;;;;;;;;;;;;21.67;54.52;101108.22;5065027;28;19916;-46
2023/08/29 11:38:28;;;;;;;;;;;;;;;21.69;54.73;101111.59;5064986;28;19909;-47
2023/08/29 11:40:54;;;;;;;;;;;;;;;21.70;54.83;101110.56;5064793;28;19955;-44
2023/08/29 11:43:20;;;;;;;;;;;;;;;21.70;54.73;101100.56;5096690;28;19913;-44
2023/08/29 11:45:45;;;;;;;;;;;;;;;21.73;54.43;101103.94;5061896;28;19938;-47
2023/08/29 11:48:11;;;;;;;;;;;;;;;21.74;54.56;101102.91;5064094;28;20004;-46
2023/08/29 11:50:38;;;;;;;;;;;;;;;21.75;54.82;101096.47;5064501;28;19917;-45
2023/08/29 11:53:04;;;;;;;;;;;;;;;21.75;54.82;101104.59;5063841;28;20285;-50
2023/08/29 11:55:31;;;;;;;;;;;;;;;21.77;54.85;101100.69;5062208;28;19913;-44
2023/08/29 11:57:57;;;;;;;;;;;;;;;21.78;54.72;101096.13;5064480;28;20298;-48
2023/08/29 12:00:24;;;;;;;;;;;;;;;21.79;54.62;101093.25;5064692;28;20331;-46
2023/08/29 12:02:50;;;;;;;;;;;;;;;21.81;55.01;101095.75;5063870;28;19974;-48
2023/08/29 12:05:15;;;;;;;;;;;;;;;21.81;54.77;101088.47;5079485;28;19917;-45
2023/08/29 12:07:41;;;;;;;;;;;;;;;21.82;55.01;101090.16;5095766;28;19935;-46
2023/08/29 12:10:08;;;;;;;;;;;;;;;21.83;54.95;101093.69;5063890;28;20407;-48
2023/08/29 12:12:35;;;;;;;;;;;;;;;21.84;54.63;101093.53;5064325;28;19912;-46
2023/08/29 12:15:01;;;;;;;;;;;;;;;21.84;55.06;101087.28;5096685;28;19913;-47
2023/08/29 12:17:33;;;;;;;;;;;;;;;21.85;55.06;101088.94;5063171;28;19916;-45
2023/08/29 12:19:59;;;;;;;;;;;;;;;21.87;54.80;101090.44;5064320;28;20028;-45
2023/08/29 12:22:31;;;;;;;;;;;;;;;21.87;54.96;101095.00;5063527;28;20373;-48
2023/08/29 12:24:58;;;;;;;;;;;;;;;21.88;54.42;101081.31;5064021;28;19971;-44
2023/08/29 12:27:23;;;;;;;;;;;;;;;21.89;54.78;101077.56;5063777;28;19932;-47
2023/08/29 12:29:48;;;;;;;;;;;;;;;21.91;54.91;101083.63;5064822;28;20391;-44